KMYZ

Marysville Municipal Airport

Marysville, Kansas, USA
METAR KMYZ 241435Z AUTO 20003KT 10SM CLR 24/20 A2986 RMK AO2
Observed Flight Rules
Jun-24 @ 14:35 UTC (31 minutes ago) Visual Flight Rules
Wind Visibility Clouds
200° at 3 knots 10 miles
  • Clear skies
Temperatures Readings
Current 24°C / 75°F
Dewpoint 20°C / 68°F
Humidity 78%
Altimeter 29.86" Hg
Pressure 1011 hPa
Elevation 319
METAR KMYZ 241435Z AUTO 20003KT 10SM CLR 24/20 A2986 RMK AO2
Observed Flight Rules
Jun-24 @ 14:35 UTC
(31 minutes ago)
VFR
Wind Visibility
200° at 3 knots 10 miles
Clouds
  • Clear skies
Temperature Dewpoint
24°C / 75°F 20°C / 68°F
Humidity Altimeter Pressure
78% 29.86" Hg 1011 hPa